Mermaid Express — H9PV — position and weather

sailwx.info

Track history (hours):
 
Tides and Currents Weather Stations Pressure Air Temp Water Temp Dewpoint Dewpoint Depression Visibility Wind Speed Wind Dir Waves Ship Positions

Mermaid Express

Last reported at 2016-May-23 00:27 UTC. Time now 2016-May-29 05:48 UTC.
Position N 49°43' W 004°48'.

Length 179 m; draft 10.8 m.

Type: Tanker. MMSI: 352866000.

Date/timePositionNaut miles runAvg speedWind from/ knotsBaromVisibWave heightAir tempDewpointWater temp
2016-May-23 00:27N 49°43' W 004°48'1312.9
2016-May-22 23:27N 49°44' W 004°28'1312.8
2016-May-22 22:28N 49°47' W 004°10'1112.4
2016-May-22 21:33N 49°50' W 003°53'1111.5
2016-May-22 20:34N 49°53' W 003°35'1110.6
2016-May-22 19:33N 49°55' W 003°19'1010.3
2016-May-22 18:34N 49°59' W 003°04'1110.8
2016-May-22 17:34N 50°01' W 002°48'1212.1
2016-May-22 16:34N 50°04' W 002°29'1514.0
2016-May-22 15:28N 50°08' W 002°07'3215.5
2016-May-22 13:24N 50°16' W 001°18'2613.6
2016-May-22 11:32N 50°23' W 000°40'1111.7
2016-May-22 10:33N 50°26' W 000°23'1110.9
2016-May-22 09:34N 50°29' W 000°06'1010.3
2016-May-22 08:34N 50°32' E 000°09'1110.7
2016-May-22 07:34N 50°34' E 000°26'3912.8
2016-May-22 04:31N 50°57' E 001°16'1212.3
2016-May-22 03:33N 51°05' E 001°30'1110.7
2016-May-22 02:34N 51°12' E 001°43'1010.0
2016-May-22 01:33N 51°20' E 001°51'1010.2
2016-May-22 00:33N 51°29' E 001°59'1711.5
2016-May-21 23:06N 51°41' E 002°18'6213.1
2016-May-21 18:21N 52°27' E 003°26'1012.3
2016-May-21 17:30N 52°29' E 003°42'1111.8
2016-May-21 16:33N 52°30' E 004°01'1111.3
2016-May-21 15:33N 52°29' E 004°19'8 8.4
2016-May-21 14:33N 52°28' E 004°33'3 2.5
2016-May-21 13:33N 52°28' E 004°37'5 4.9
2016-May-21 12:33N 52°26' E 004°44'1 0.9
2016-May-21 11:32N 52°25' E 004°45'0 0.0
2016-May-21 10:26N 52°25' E 004°45'0 0.0
2016-May-21 09:32N 52°25' E 004°45'0 0.0
2016-May-21 08:29N 52°25' E 004°45'0 0.0
2016-May-21 07:20N 52°25' E 004°45'0 0.0
2016-May-21 06:32N 52°25' E 004°45'0 0.0
2016-May-21 05:32N 52°25' E 004°45'0 0.0
2016-May-21 04:32N 52°25' E 004°45'0 0.0
2016-May-21 03:29N 52°25' E 004°45'0 0.0
2016-May-21 02:32N 52°25' E 004°45'0 0.4
2016-May-21 01:33N 52°26' E 004°45'3 2.8
2016-May-21 00:25N 52°24' E 004°50'0 0.0
2016-May-20 23:25N 52°24' E 004°50'0 0.0
2016-May-20 22:28N 52°24' E 004°50'0 0.0
2016-May-20 21:28N 52°24' E 004°50'0 0.0
2016-May-20 20:31N 52°24' E 004°50'0 0.0
2016-May-20 19:31N 52°24' E 004°50'0 0.0
2016-May-20 18:31N 52°24' E 004°50'0 0.0
2016-May-20 17:28N 52°24' E 004°50'0 0.0
2016-May-20 16:31N 52°24' E 004°50'0 0.0
2016-May-20 15:16N 52°24' E 004°50'0 0.0
2016-May-20 14:28N 52°24' E 004°50'0 0.0
2016-May-20 13:31N 52°24' E 004°50'0 0.0
2016-May-20 12:31N 52°24' E 004°50'0 0.0
2016-May-20 11:31N 52°24' E 004°50'0 0.0
2016-May-20 10:28N 52°24' E 004°50'0 0.0
2016-May-20 09:31N 52°24' E 004°50'0 0.0
2016-May-20 08:28N 52°24' E 004°50'0 0.0
2016-May-20 07:25N 52°24' E 004°50'0 0.0
2016-May-20 06:28N 52°24' E 004°50'0 0.0
2016-May-20 04:28N 52°24' E 004°50'0 0.0
2016-May-20 03:22N 52°24' E 004°50'0 0.0
2016-May-20 02:19N 52°24' E 004°50'0 0.0
2016-May-20 01:31N 52°24' E 004°50'0 0.0
2016-May-20 00:31N 52°24' E 004°50'0 0.0
2016-May-19 23:31N 52°24' E 004°50'0 0.0
2016-May-19 22:31N 52°24' E 004°50'0 0.0
2016-May-19 21:31N 52°24' E 004°50'0 0.0
2016-May-19 20:31N 52°24' E 004°50'0 0.0
2016-May-19 19:31N 52°24' E 004°50'0 0.0
2016-May-19 18:31N 52°24' E 004°50'0 0.0
2016-May-19 17:31N 52°24' E 004°50'0 0.0
2016-May-19 16:31N 52°24' E 004°50'0 0.0
2016-May-19 15:31N 52°24' E 004°50'0 0.0
2016-May-19 14:28N 52°24' E 004°50'0 0.0
2016-May-19 13:28N 52°24' E 004°50'0 0.0
2016-May-19 12:22N 52°24' E 004°50'0 0.0
2016-May-19 11:31N 52°24' E 004°50'0 0.0
2016-May-19 10:28N 52°24' E 004°50'0 0.0
2016-May-19 09:31N 52°24' E 004°50'0 0.0
2016-May-19 08:19N 52°24' E 004°50'0 0.0
2016-May-19 07:31N 52°24' E 004°50'0 0.0
2016-May-19 06:31N 52°24' E 004°50'0 0.0
2016-May-19 04:31N 52°24' E 004°50'0 0.0
2016-May-19 03:31N 52°24' E 004°50'0 0.0
2016-May-19 02:28N 52°24' E 004°50'0 0.0
2016-May-19 01:28N 52°24' E 004°50'0 0.0
2016-May-19 00:31N 52°24' E 004°50'0 0.0
2016-May-18 23:31N 52°24' E 004°50'0 0.0
2016-May-18 22:16N 52°24' E 004°50'0 0.0
2016-May-18 21:28N 52°24' E 004°50'0 0.0
2016-May-18 20:31N 52°24' E 004°50'0 0.0
2016-May-18 19:25N 52°24' E 004°50'0 0.0
2016-May-18 18:31N 52°24' E 004°50'0 0.0
2016-May-18 17:28N 52°24' E 004°50'0 0.0
2016-May-18 16:28N 52°24' E 004°50'0 0.0
2016-May-18 15:33N 52°24' E 004°50'5 4.7
2016-May-18 14:33N 52°26' E 004°43'4 4.2
2016-May-18 13:34N 52°28' E 004°36'7 6.7
2016-May-18 12:33N 52°29' E 004°25'8 8.5
2016-May-18 11:33N 52°29' E 004°12'1110.5
2016-May-18 10:33N 52°27' E 003°55'1010.1
2016-May-18 09:32N 52°25' E 003°38'4410.5
2016-May-18 05:21N 51°53' E 002°47'1012.1
2016-May-18 04:33N 51°46' E 002°38'1312.7
2016-May-18 03:33N 51°36' E 002°25'1313.4
2016-May-18 02:33N 51°27' E 002°09'1312.7
2016-May-18 01:33N 51°14' E 002°05'1414.2
2016-May-18 00:34N 51°07' E 001°45'1514.7
2016-May-17 23:33N 50°56' E 001°30'1614.8
2016-May-17 22:29N 50°41' E 001°20'4113.8
2016-May-17 19:33N 50°24' E 000°23'1515.1
2016-May-17 18:33N 50°20' W 000°00'1515.5
2016-May-17 17:33N 50°16' W 000°23'1412.0
2016-May-17 16:24N 50°20' W 000°44'1011.9
2016-May-17 15:34N 50°29' W 000°51'1110.7
2016-May-17 14:33N 50°39' W 000°56'10 9.7
2016-May-17 13:34N 50°45' W 001°08'8 8.4
2016-May-17 12:33N 50°50' W 001°19'  
2016-May-15 02:28N 50°50' W 001°20'0 0.3
2016-May-15 01:33N 50°50' W 001°19'4 3.9
2016-May-15 00:33N 50°47' W 001°17'9 9.0
2016-May-14 23:33N 50°44' W 001°04'7 7.4
2016-May-14 22:33N 50°39' W 000°55'6 6.2
2016-May-14 21:34N 50°36' W 001°03'0 0.3
2016-May-14 20:31N 50°36' W 001°03'0 0.0
2016-May-14 19:31N 50°36' W 001°03'0 0.0
2016-May-14 18:31N 50°36' W 001°03'0 0.2
2016-May-14 17:28N 50°36' W 001°03'0 0.1
2016-May-14 16:28N 50°36' W 001°02'0 0.0
2016-May-14 15:31N 50°36' W 001°02'0 0.0
2016-May-14 14:31N 50°36' W 001°02'0 0.0
2016-May-14 13:31N 50°36' W 001°02'0 0.0
2016-May-14 12:22N 50°36' W 001°03'0 0.2
2016-May-14 11:31N 50°36' W 001°03'0 0.1
2016-May-14 10:31N 50°36' W 001°03'0 0.0
2016-May-14 09:28N 50°36' W 001°03'0 0.0
2016-May-14 08:28N 50°36' W 001°03'0 0.0
2016-May-14 07:28N 50°36' W 001°03'0 0.0
2016-May-14 06:28N 50°36' W 001°03'0 0.0
2016-May-14 05:31N 50°36' W 001°03'0 0.0
2016-May-14 04:28N 50°36' W 001°03'0 0.3
2016-May-14 03:31N 50°36' W 001°03'0 0.0
2016-May-14 02:31N 50°36' W 001°03'0 0.0
2016-May-14 01:31N 50°36' W 001°03'0 0.0
2016-May-14 00:28N 50°36' W 001°03'0 0.2
2016-May-13 23:31N 50°36' W 001°03'0 0.2
2016-May-13 22:22N 50°36' W 001°03'1 1.5
2016-May-13 21:33N 50°35' W 001°02'20 6.6
2016-May-13 18:29N 50°15' W 001°04'12 9.7
2016-May-13 17:15N 50°07' W 001°18'811.3
2016-May-13 16:33N 50°05' W 001°30'5213.1
2016-May-13 12:33N 49°51' W 002°48'1313.2
2016-May-13 11:33N 49°45' W 003°07'1312.7
2016-May-13 10:34N 49°44' W 003°26'1312.6
2016-May-13 09:34N 49°43' W 003°45'2512.2
2016-May-13 07:31N 49°40' W 004°24'1112.0
2016-May-13 06:34N 49°39' W 004°42'1211.9
2016-May-13 05:33N 49°39' W 005°00'1311.6
2016-May-13 04:27N 49°38' W 005°20'  
Track history (hours):
 
Tides and Currents Weather Stations Pressure Air Temp Water Temp Dewpoint Dewpoint Depression Visibility Wind Speed Wind Dir Waves Ship Positions

Mermaid Express

Last reported at 2016-May-23 00:27 UTC. Time now 2016-May-29 05:48 UTC.
Position N 49°43' W 004°48'.

Length 179 m; draft 10.8 m.

Type: Tanker. MMSI: 352866000.

Date/timePositionNaut miles runAvg speedWind from/ knotsBaromVisibWave heightAir tempDewpointWater temp
2016-May-23 00:27N 49°43' W 004°48'1312.9
2016-May-22 23:27N 49°44' W 004°28'1312.8
2016-May-22 22:28N 49°47' W 004°10'1112.4
2016-May-22 21:33N 49°50' W 003°53'1111.5
2016-May-22 20:34N 49°53' W 003°35'1110.6
2016-May-22 19:33N 49°55' W 003°19'1010.3
2016-May-22 18:34N 49°59' W 003°04'1110.8
2016-May-22 17:34N 50°01' W 002°48'1212.1
2016-May-22 16:34N 50°04' W 002°29'1514.0
2016-May-22 15:28N 50°08' W 002°07'3215.5
2016-May-22 13:24N 50°16' W 001°18'2613.6
2016-May-22 11:32N 50°23' W 000°40'1111.7
2016-May-22 10:33N 50°26' W 000°23'1110.9
2016-May-22 09:34N 50°29' W 000°06'1010.3
2016-May-22 08:34N 50°32' E 000°09'1110.7
2016-May-22 07:34N 50°34' E 000°26'3912.8
2016-May-22 04:31N 50°57' E 001°16'1212.3
2016-May-22 03:33N 51°05' E 001°30'1110.7
2016-May-22 02:34N 51°12' E 001°43'1010.0
2016-May-22 01:33N 51°20' E 001°51'1010.2
2016-May-22 00:33N 51°29' E 001°59'1711.5
2016-May-21 23:06N 51°41' E 002°18'6213.1
2016-May-21 18:21N 52°27' E 003°26'1012.3
2016-May-21 17:30N 52°29' E 003°42'1111.8
2016-May-21 16:33N 52°30' E 004°01'1111.3
2016-May-21 15:33N 52°29' E 004°19'8 8.4
2016-May-21 14:33N 52°28' E 004°33'3 2.5
2016-May-21 13:33N 52°28' E 004°37'5 4.9
2016-May-21 12:33N 52°26' E 004°44'1 0.9
2016-May-21 11:32N 52°25' E 004°45'0 0.0
2016-May-21 10:26N 52°25' E 004°45'0 0.0
2016-May-21 09:32N 52°25' E 004°45'0 0.0
2016-May-21 08:29N 52°25' E 004°45'0 0.0
2016-May-21 07:20N 52°25' E 004°45'0 0.0
2016-May-21 06:32N 52°25' E 004°45'0 0.0
2016-May-21 05:32N 52°25' E 004°45'0 0.0
2016-May-21 04:32N 52°25' E 004°45'0 0.0
2016-May-21 03:29N 52°25' E 004°45'0 0.0
2016-May-21 02:32N 52°25' E 004°45'0 0.4
2016-May-21 01:33N 52°26' E 004°45'3 2.8
2016-May-21 00:25N 52°24' E 004°50'0 0.0
2016-May-20 23:25N 52°24' E 004°50'0 0.0
2016-May-20 22:28N 52°24' E 004°50'0 0.0
2016-May-20 21:28N 52°24' E 004°50'0 0.0
2016-May-20 20:31N 52°24' E 004°50'0 0.0
2016-May-20 19:31N 52°24' E 004°50'0 0.0
2016-May-20 18:31N 52°24' E 004°50'0 0.0
2016-May-20 17:28N 52°24' E 004°50'0 0.0
2016-May-20 16:31N 52°24' E 004°50'0 0.0
2016-May-20 15:16N 52°24' E 004°50'0 0.0
2016-May-20 14:28N 52°24' E 004°50'0 0.0
2016-May-20 13:31N 52°24' E 004°50'0 0.0
2016-May-20 12:31N 52°24' E 004°50'0 0.0
2016-May-20 11:31N 52°24' E 004°50'0 0.0
2016-May-20 10:28N 52°24' E 004°50'0 0.0
2016-May-20 09:31N 52°24' E 004°50'0 0.0
2016-May-20 08:28N 52°24' E 004°50'0 0.0
2016-May-20 07:25N 52°24' E 004°50'0 0.0
2016-May-20 06:28N 52°24' E 004°50'0 0.0
2016-May-20 04:28N 52°24' E 004°50'0 0.0
2016-May-20 03:22N 52°24' E 004°50'0 0.0
2016-May-20 02:19N 52°24' E 004°50'0 0.0
2016-May-20 01:31N 52°24' E 004°50'0 0.0
2016-May-20 00:31N 52°24' E 004°50'0 0.0
2016-May-19 23:31N 52°24' E 004°50'0 0.0
2016-May-19 22:31N 52°24' E 004°50'0 0.0
2016-May-19 21:31N 52°24' E 004°50'0 0.0
2016-May-19 20:31N 52°24' E 004°50'0 0.0
2016-May-19 19:31N 52°24' E 004°50'0 0.0
2016-May-19 18:31N 52°24' E 004°50'0 0.0
2016-May-19 17:31N 52°24' E 004°50'0 0.0
2016-May-19 16:31N 52°24' E 004°50'0 0.0
2016-May-19 15:31N 52°24' E 004°50'0 0.0
2016-May-19 14:28N 52°24' E 004°50'0 0.0
2016-May-19 13:28N 52°24' E 004°50'0 0.0
2016-May-19 12:22N 52°24' E 004°50'0 0.0
2016-May-19 11:31N 52°24' E 004°50'0 0.0
2016-May-19 10:28N 52°24' E 004°50'0 0.0
2016-May-19 09:31N 52°24' E 004°50'0 0.0
2016-May-19 08:19N 52°24' E 004°50'0 0.0
2016-May-19 07:31N 52°24' E 004°50'0 0.0
2016-May-19 06:31N 52°24' E 004°50'0 0.0
2016-May-19 04:31N 52°24' E 004°50'0 0.0
2016-May-19 03:31N 52°24' E 004°50'0 0.0
2016-May-19 02:28N 52°24' E 004°50'0 0.0
2016-May-19 01:28N 52°24' E 004°50'0 0.0
2016-May-19 00:31N 52°24' E 004°50'0 0.0
2016-May-18 23:31N 52°24' E 004°50'0 0.0
2016-May-18 22:16N 52°24' E 004°50'0 0.0
2016-May-18 21:28N 52°24' E 004°50'0 0.0
2016-May-18 20:31N 52°24' E 004°50'0 0.0
2016-May-18 19:25N 52°24' E 004°50'0 0.0
2016-May-18 18:31N 52°24' E 004°50'0 0.0
2016-May-18 17:28N 52°24' E 004°50'0 0.0
2016-May-18 16:28N 52°24' E 004°50'0 0.0
2016-May-18 15:33N 52°24' E 004°50'5 4.7
2016-May-18 14:33N 52°26' E 004°43'4 4.2
2016-May-18 13:34N 52°28' E 004°36'7 6.7
2016-May-18 12:33N 52°29' E 004°25'8 8.5
2016-May-18 11:33N 52°29' E 004°12'1110.5
2016-May-18 10:33N 52°27' E 003°55'1010.1
2016-May-18 09:32N 52°25' E 003°38'4410.5
2016-May-18 05:21N 51°53' E 002°47'1012.1
2016-May-18 04:33N 51°46' E 002°38'1312.7
2016-May-18 03:33N 51°36' E 002°25'1313.4
2016-May-18 02:33N 51°27' E 002°09'1312.7
2016-May-18 01:33N 51°14' E 002°05'1414.2
2016-May-18 00:34N 51°07' E 001°45'1514.7
2016-May-17 23:33N 50°56' E 001°30'1614.8
2016-May-17 22:29N 50°41' E 001°20'4113.8
2016-May-17 19:33N 50°24' E 000°23'1515.1
2016-May-17 18:33N 50°20' W 000°00'1515.5
2016-May-17 17:33N 50°16' W 000°23'1412.0
2016-May-17 16:24N 50°20' W 000°44'1011.9
2016-May-17 15:34N 50°29' W 000°51'1110.7
2016-May-17 14:33N 50°39' W 000°56'10 9.7
2016-May-17 13:34N 50°45' W 001°08'8 8.4
2016-May-17 12:33N 50°50' W 001°19'  
2016-May-15 02:28N 50°50' W 001°20'0 0.3
2016-May-15 01:33N 50°50' W 001°19'4 3.9
2016-May-15 00:33N 50°47' W 001°17'9 9.0
2016-May-14 23:33N 50°44' W 001°04'7 7.4
2016-May-14 22:33N 50°39' W 000°55'6 6.2
2016-May-14 21:34N 50°36' W 001°03'0 0.3
2016-May-14 20:31N 50°36' W 001°03'0 0.0
2016-May-14 19:31N 50°36' W 001°03'0 0.0
2016-May-14 18:31N 50°36' W 001°03'0 0.2
2016-May-14 17:28N 50°36' W 001°03'0 0.1
2016-May-14 16:28N 50°36' W 001°02'0 0.0
2016-May-14 15:31N 50°36' W 001°02'0 0.0
2016-May-14 14:31N 50°36' W 001°02'0 0.0
2016-May-14 13:31N 50°36' W 001°02'0 0.0
2016-May-14 12:22N 50°36' W 001°03'0 0.2
2016-May-14 11:31N 50°36' W 001°03'0 0.1
2016-May-14 10:31N 50°36' W 001°03'0 0.0
2016-May-14 09:28N 50°36' W 001°03'0 0.0
2016-May-14 08:28N 50°36' W 001°03'0 0.0
2016-May-14 07:28N 50°36' W 001°03'0 0.0
2016-May-14 06:28N 50°36' W 001°03'0 0.0
2016-May-14 05:31N 50°36' W 001°03'0 0.0
2016-May-14 04:28N 50°36' W 001°03'0 0.3
2016-May-14 03:31N 50°36' W 001°03'0 0.0
2016-May-14 02:31N 50°36' W 001°03'0 0.0
2016-May-14 01:31N 50°36' W 001°03'0 0.0
2016-May-14 00:28N 50°36' W 001°03'0 0.2
2016-May-13 23:31N 50°36' W 001°03'0 0.2
2016-May-13 22:22N 50°36' W 001°03'1 1.5
2016-May-13 21:33N 50°35' W 001°02'20 6.6
2016-May-13 18:29N 50°15' W 001°04'12 9.7
2016-May-13 17:15N 50°07' W 001°18'811.3
2016-May-13 16:33N 50°05' W 001°30'5213.1
2016-May-13 12:33N 49°51' W 002°48'1313.2
2016-May-13 11:33N 49°45' W 003°07'1312.7
2016-May-13 10:34N 49°44' W 003°26'1312.6
2016-May-13 09:34N 49°43' W 003°45'2512.2
2016-May-13 07:31N 49°40' W 004°24'1112.0
2016-May-13 06:34N 49°39' W 004°42'1211.9
2016-May-13 05:33N 49°39' W 005°00'1311.6
2016-May-13 04:27N 49°38' W 005°20'  

Dump ship's entire track history